Pagrindinis puslapis
METAR-TAF:

METAR-TAF

Oro uostai :

Paksė, Laosas

platuma: 15-08-02N, ilguma: 105-46-55E, Aukštis: 107 m

Dabartinis oras

Ataskaita buvo paskelbta 13 valandos ir 36 minutes, ne 09:00 UTC
Vėjas 16 kt iš Šiaurės
Temperatūra 26°C
Drėgmė 61%
Slėgis 1012 hPa
Matomumas 10 km arba daugiau
Išsisklaidę debesys ne aukštis 2400 ft
Su prošvaistėmis ne aukštis 5000 ft

METAR: VLPS 290900Z 36016KT 9999 SCT024 BKN050 26/18 Q1012 NOSIG

Laikas: 05:36 (22:36 UTC)

Prognozė

Ataskaita buvo paskelbta 11 valandos ir 36 minutes, ne 11:00 UTC
Prognozė galioja nuo 29 metu 12 UTC su 30 metu 12 UTC
Vėjas 10 kt iš Šiaurės
Matomumas 10 km arba daugiau
Išsisklaidę debesys ne aukštis 2400 ft
Su prošvaistėmis ne aukštis 5000 ft

TAF: VLPS 291100Z 2912/3012 36010KT 9999 SCT024 BKN050

Orai ataskaitas ir orų prognozės (METAR, TAF).

turimą stotys yra geltonos ir raudonos taškus žemėlapyje.

Perkelti pele per norėdami pamatyti stoties vardą.

Tada spustelėkite, norėdami matyti oro stebėjimo ir prognozės.

Norėdami pakeisti žemėlapį: spustelėkite ant žalios mygtukų su juodo kryžiaus žemyn,; žalią mygtuką su brūkšneliu, jei norite nutolinti; arba žalių rodyklių gretimoms žemėlapius.


METAR-TAF: